createdAt,value
2022-12-01T00:02:07.547Z,145.10
2022-12-01T00:04:34.174Z,138.90
2022-12-01T00:07:00.728Z,139.97
2022-12-01T00:09:46.307Z,126.33
2022-12-01T00:12:13.072Z,140.77
2022-12-01T00:14:39.675Z,126.57
2022-12-01T00:17:07.286Z,149.23
2022-12-01T00:19:33.892Z,145.87
2022-12-01T00:22:00.515Z,119.73
2022-12-01T00:24:27.091Z,149.63
2022-12-01T00:26:53.717Z,126.43
2022-12-01T00:29:20.270Z,130.63
2022-12-01T00:31:49.537Z,142.07
2022-12-01T00:34:23.335Z,167.50
2022-12-01T00:36:50.245Z,152.37
2022-12-01T00:39:16.822Z,153.73
2022-12-01T00:41:43.394Z,154.00
2022-12-01T00:44:09.994Z,132.13
2022-12-01T00:46:36.738Z,134.33
2022-12-01T00:49:03.750Z,127.17
2022-12-01T00:51:30.475Z,121.43
2022-12-01T00:53:57.427Z,107.70
2022-12-01T00:56:24.013Z,119.23
2022-12-01T00:58:50.611Z,117.63
2022-12-01T01:01:17.291Z,102.33
2022-12-01T01:03:44.017Z,132.83
2022-12-01T01:06:11.577Z,150.67
2022-12-01T01:08:38.661Z,137.07
2022-12-01T01:11:06.216Z,164.37
2022-12-01T01:13:33.259Z,175.77
2022-12-01T01:16:01.626Z,146.63
2022-12-01T01:18:28.219Z,155.50
2022-12-01T01:20:55.783Z,169.93
2022-12-01T01:23:22.388Z,196.73
2022-12-01T01:25:49.593Z,178.77
2022-12-01T01:28:16.138Z,196.47
2022-12-01T01:30:42.874Z,193.40
2022-12-01T01:33:10.086Z,205.97
2022-12-01T01:35:36.763Z,196.70
2022-12-01T01:38:03.354Z,191.90
2022-12-01T01:40:29.922Z,187.93
2022-12-01T01:42:56.491Z,196.27
2022-12-01T01:45:25.158Z,177.50
2022-12-01T01:47:52.705Z,204.73
2022-12-01T01:50:20.591Z,182.17
2022-12-01T01:52:53.155Z,202.47
2022-12-01T01:55:19.796Z,161.23
2022-12-01T01:57:46.646Z,179.90
2022-12-01T02:00:14.858Z,177.63
2022-12-01T02:02:44.154Z,181.83
2022-12-01T02:05:19.183Z,181.27
2022-12-01T02:07:46.834Z,208.87
2022-12-01T02:10:14.307Z,216.03
2022-12-01T02:12:50.468Z,203.73
2022-12-01T02:15:20.808Z,197.00
2022-12-01T02:17:53.199Z,199.30
2022-12-01T02:20:26.359Z,216.80
2022-12-01T02:23:08.202Z,241.33
2022-12-01T02:25:37.797Z,220.20
2022-12-01T02:28:07.497Z,267.53
2022-12-01T02:30:37.155Z,264.97
2022-12-01T02:33:11.814Z,301.17
2022-12-01T02:35:46.060Z,272.00
2022-12-01T02:38:45.018Z,304.63
2022-12-01T02:41:11.547Z,341.90
2022-12-01T02:43:47.995Z,346.50
2022-12-01T02:46:23.652Z,339.67
2022-12-01T02:48:52.455Z,308.40
2022-12-01T02:51:29.034Z,347.10
2022-12-01T02:53:56.667Z,381.93
2022-12-01T02:56:23.878Z,343.73
2022-12-01T02:58:50.485Z,375.13
2022-12-01T03:01:27.567Z,359.67
2022-12-01T03:04:09.622Z,391.43
2022-12-01T03:06:51.476Z,410.27
2022-12-01T03:09:27.296Z,402.03
2022-12-01T03:12:03.783Z,458.37
2022-12-01T03:14:30.370Z,382.33
2022-12-01T03:16:58.666Z,441.13
2022-12-01T03:19:40.178Z,403.73
2022-12-01T03:22:11.658Z,384.47
2022-12-01T03:24:38.816Z,425.53
2022-12-01T03:27:06.006Z,401.37
2022-12-01T03:29:39.869Z,459.00
2022-12-01T03:32:13.064Z,414.37
2022-12-01T03:34:47.151Z,482.47
2022-12-01T03:37:18.166Z,468.37
2022-12-01T03:39:46.104Z,457.57
2022-12-01T03:42:20.714Z,437.63
2022-12-01T03:44:49.507Z,512.17
2022-12-01T03:47:18.129Z,532.23
2022-12-01T03:49:46.043Z,447.83
2022-12-01T03:52:26.398Z,536.00
2022-12-01T03:54:59.419Z,501.13
2022-12-01T03:57:29.477Z,502.13
2022-12-01T03:59:56.527Z,534.57
2022-12-01T04:02:27.591Z,522.60
2022-12-01T04:04:54.324Z,515.63
2022-12-01T04:07:21.559Z,519.47
2022-12-01T04:09:48.575Z,521.97
2022-12-01T04:12:30.797Z,483.23
2022-12-01T04:14:58.230Z,545.67
2022-12-01T04:17:25.182Z,444.77
2022-12-01T04:19:51.974Z,498.10
2022-12-01T04:22:18.607Z,460.83
2022-12-01T04:24:45.304Z,455.80
2022-12-01T04:27:12.350Z,441.20
2022-12-01T04:29:38.917Z,489.40
2022-12-01T04:32:05.594Z,479.57
2022-12-01T04:34:32.278Z,423.00
2022-12-01T04:36:58.857Z,431.00
2022-12-01T04:39:25.400Z,383.03
2022-12-01T04:41:51.930Z,488.53
2022-12-01T04:44:18.655Z,482.33
2022-12-01T04:46:45.245Z,453.40
2022-12-01T04:49:11.954Z,418.53
2022-12-01T04:51:38.525Z,388.80
2022-12-01T04:54:06.068Z,404.33
2022-12-01T04:56:33.567Z,435.10
2022-12-01T04:59:00.662Z,421.57
2022-12-01T05:01:27.694Z,459.73
2022-12-01T05:03:54.380Z,423.17
2022-12-01T05:06:25.516Z,382.60
2022-12-01T05:08:54.389Z,425.33
2022-12-01T05:11:21.033Z,398.63
2022-12-01T05:13:48.165Z,398.40
2022-12-01T05:16:14.752Z,489.20
2022-12-01T05:18:41.663Z,455.67
2022-12-01T05:21:09.189Z,460.87
2022-12-01T05:23:36.668Z,390.70
2022-12-01T05:26:04.155Z,396.23
2022-12-01T05:28:31.073Z,421.13
2022-12-01T05:30:57.726Z,401.80
2022-12-01T05:33:25.015Z,346.77
2022-12-01T05:35:51.737Z,351.87
2022-12-01T05:38:18.431Z,288.47
2022-12-01T05:40:52.334Z,340.90
2022-12-01T05:43:22.654Z,271.17
2022-12-01T05:45:51.931Z,241.03
2022-12-01T05:48:18.719Z,234.50
2022-12-01T05:50:45.459Z,247.73
2022-12-01T05:53:13.962Z,243.27
2022-12-01T05:55:40.651Z,239.40
2022-12-01T05:58:07.631Z,265.37
2022-12-01T06:00:34.562Z,232.20
2022-12-01T06:03:02.001Z,236.80
2022-12-01T06:05:28.466Z,215.80
2022-12-01T06:07:55.031Z,203.33
2022-12-01T06:10:21.848Z,178.63
2022-12-01T06:12:48.431Z,165.90
2022-12-01T06:15:15.033Z,195.97
2022-12-01T06:17:41.536Z,159.67
2022-12-01T06:20:08.689Z,163.27
2022-12-01T06:22:35.234Z,164.97
2022-12-01T06:25:01.762Z,153.33
2022-12-01T06:27:28.298Z,146.63
2022-12-01T06:29:54.927Z,151.90
2022-12-01T06:32:21.475Z,168.73
2022-12-01T06:34:48.184Z,139.27
2022-12-01T06:37:15.777Z,161.27
2022-12-01T06:39:42.456Z,138.23
2022-12-01T06:42:09.138Z,136.17
2022-12-01T06:44:35.763Z,136.87
2022-12-01T06:47:02.402Z,141.73
2022-12-01T06:49:29.183Z,129.57
2022-12-01T06:51:55.735Z,137.70
2022-12-01T06:54:22.319Z,147.50
2022-12-01T06:56:49.306Z,131.53
2022-12-01T06:59:15.941Z,137.00
2022-12-01T07:01:42.874Z,135.37
2022-12-01T07:04:09.538Z,114.17
2022-12-01T07:06:35.991Z,134.93
2022-12-01T07:09:02.557Z,145.90
2022-12-01T07:11:32.348Z,138.73
2022-12-01T07:13:59.030Z,129.43
2022-12-01T07:16:25.688Z,163.03
2022-12-01T07:18:53.001Z,127.00
2022-12-01T07:21:19.555Z,137.50
2022-12-01T07:23:46.132Z,135.17
2022-12-01T07:26:14.291Z,152.47
2022-12-01T07:28:41.290Z,177.33
2022-12-01T07:31:09.131Z,165.03
2022-12-01T07:33:36.051Z,161.30
2022-12-01T07:36:03.142Z,147.60
2022-12-01T07:38:30.111Z,146.70
2022-12-01T07:41:01.446Z,157.57
2022-12-01T07:43:29.171Z,154.07
2022-12-01T07:45:55.753Z,156.30
2022-12-01T07:48:22.851Z,157.33
2022-12-01T07:50:49.393Z,160.83
2022-12-01T07:53:15.894Z,160.87
2022-12-01T07:55:47.609Z,162.37
2022-12-01T07:58:14.316Z,141.73
2022-12-01T08:00:41.006Z,170.40
2022-12-01T08:03:07.524Z,136.97
2022-12-01T08:05:34.242Z,141.33
2022-12-01T08:08:00.868Z,133.60
2022-12-01T08:10:27.411Z,120.03
2022-12-01T08:12:54.143Z,140.40
2022-12-01T08:15:20.734Z,128.43
2022-12-01T08:17:47.521Z,136.03
2022-12-01T08:20:18.422Z,132.50
2022-12-01T08:22:48.928Z,140.03
2022-12-01T08:25:15.697Z,138.30
2022-12-01T08:27:42.277Z,128.73
2022-12-01T08:30:09.122Z,126.10
2022-12-01T08:32:35.630Z,134.63
2022-12-01T08:35:02.231Z,131.20
2022-12-01T08:37:28.835Z,114.47
2022-12-01T08:39:55.296Z,112.60
2022-12-01T08:42:21.862Z,134.90
2022-12-01T08:44:48.460Z,95.77
2022-12-01T08:47:18.755Z,104.57
2022-12-01T08:49:45.624Z,124.03
2022-12-01T08:52:12.153Z,117.90
2022-12-01T08:54:38.659Z,98.97
2022-12-01T08:57:05.468Z,117.10
2022-12-01T08:59:31.930Z,115.37
2022-12-01T09:02:00.463Z,104.23
2022-12-01T09:04:30.301Z,108.23
2022-12-01T09:06:57.686Z,105.03
2022-12-01T09:09:25.767Z,119.40
2022-12-01T09:11:52.442Z,108.40
2022-12-01T09:14:19.694Z,108.63
2022-12-01T09:16:46.990Z,115.23
2022-12-01T09:19:15.930Z,130.33
2022-12-01T09:21:47.905Z,113.20
2022-12-01T09:24:15.255Z,117.20
2022-12-01T09:26:42.361Z,125.07
2022-12-01T09:29:09.888Z,124.47
2022-12-01T09:31:36.915Z,133.47
2022-12-01T09:34:04.762Z,140.57
2022-12-01T09:36:32.052Z,125.37
2022-12-01T09:38:58.808Z,125.57
2022-12-01T09:41:38.962Z,128.30
2022-12-01T09:44:24.473Z,134.60
2022-12-01T09:46:57.980Z,144.40
2022-12-01T09:49:46.361Z,132.00
2022-12-01T09:52:14.736Z,140.93
2022-12-01T09:54:41.365Z,143.93
2022-12-01T09:57:14.573Z,152.10
2022-12-01T09:59:43.139Z,143.33
2022-12-01T10:02:28.620Z,132.67
2022-12-01T10:04:56.837Z,168.53
2022-12-01T10:07:29.594Z,160.67
2022-12-01T10:10:01.032Z,152.13
2022-12-01T10:12:32.599Z,178.37
2022-12-01T10:15:02.308Z,158.87
2022-12-01T10:17:44.072Z,166.50
2022-12-01T10:20:13.959Z,158.97
2022-12-01T10:22:40.455Z,178.50
2022-12-01T10:25:13.692Z,176.90
2022-12-01T10:28:09.625Z,172.60
2022-12-01T10:30:40.473Z,182.17
2022-12-01T10:33:24.289Z,200.83
2022-12-01T10:35:51.045Z,191.10
2022-12-01T10:38:29.314Z,186.37
2022-12-01T10:40:58.707Z,171.33
2022-12-01T10:43:38.060Z,199.03
2022-12-01T10:46:16.945Z,170.10
2022-12-01T10:48:56.997Z,194.50
2022-12-01T10:51:23.894Z,194.07
2022-12-01T10:53:50.754Z,193.17
2022-12-01T10:56:21.262Z,214.80
2022-12-01T10:58:48.050Z,215.47
2022-12-01T11:01:17.101Z,219.17
2022-12-01T11:03:43.858Z,219.67
2022-12-01T11:06:10.674Z,185.77
2022-12-01T11:08:41.520Z,196.93
2022-12-01T11:11:27.068Z,200.57
2022-12-01T11:13:54.293Z,214.27
2022-12-01T11:16:41.237Z,205.20
2022-12-01T11:19:28.475Z,223.27
2022-12-01T11:21:56.580Z,216.30
2022-12-01T11:24:26.953Z,208.40
2022-12-01T11:26:53.509Z,195.77
2022-12-01T11:29:36.227Z,200.93
2022-12-01T11:32:12.707Z,186.83
2022-12-01T11:34:39.270Z,196.83
2022-12-01T11:37:15.617Z,227.53
2022-12-01T11:39:43.909Z,217.93
2022-12-01T11:42:13.492Z,192.20
2022-12-01T11:44:52.045Z,226.40
2022-12-01T11:47:23.665Z,194.03
2022-12-01T11:50:01.599Z,209.53
2022-12-01T11:52:30.630Z,216.73
2022-12-01T11:55:06.918Z,186.80
2022-12-01T11:57:37.054Z,197.70
2022-12-01T12:00:36.150Z,201.70
2022-12-01T12:03:08.548Z,187.03
2022-12-01T12:05:35.052Z,191.60
2022-12-01T12:08:13.844Z,189.07
2022-12-01T12:10:40.313Z,147.77
2022-12-01T12:13:16.387Z,172.33
2022-12-01T12:16:01.775Z,176.30
2022-12-01T12:18:44.438Z,160.83
2022-12-01T12:21:29.742Z,166.97
2022-12-01T12:24:34.750Z,166.30
2022-12-01T12:27:08.724Z,178.47
2022-12-01T12:29:35.134Z,162.40
2022-12-01T12:32:26.680Z,166.60
2022-12-01T12:35:05.965Z,177.00
2022-12-01T12:37:38.696Z,162.80
2022-12-01T12:40:08.231Z,146.57
2022-12-01T12:42:48.134Z,154.23
2022-12-01T12:45:23.823Z,155.00
2022-12-01T12:47:50.324Z,144.70
2022-12-01T12:50:37.258Z,158.93
2022-12-01T12:53:10.390Z,157.90
2022-12-01T12:55:43.214Z,150.13
2022-12-01T12:58:22.352Z,154.70
2022-12-01T13:01:01.352Z,169.93
2022-12-01T13:03:38.934Z,143.37
2022-12-01T13:06:09.047Z,146.90
2022-12-01T13:08:51.008Z,153.53
2022-12-01T13:11:20.616Z,153.20
2022-12-01T13:14:07.646Z,145.40
2022-12-01T13:16:36.778Z,115.63
2022-12-01T13:19:18.616Z,91.27
2022-12-01T13:21:46.602Z,86.73
2022-12-01T13:24:19.875Z,78.57
2022-12-01T13:26:50.932Z,89.03
2022-12-01T13:29:18.572Z,83.10
2022-12-01T13:31:46.681Z,75.00
2022-12-01T13:34:28.247Z,77.87
2022-12-01T13:36:55.438Z,83.00
2022-12-01T13:39:36.111Z,75.90
2022-12-01T13:42:04.945Z,76.57
2022-12-01T13:44:40.398Z,85.53
2022-12-01T13:47:09.951Z,65.83
2022-12-01T13:49:42.209Z,63.37
2022-12-01T13:52:14.868Z,61.57
2022-12-01T13:54:58.747Z,67.47
2022-12-01T13:57:26.176Z,69.33
2022-12-01T13:59:58.893Z,68.53
2022-12-01T14:02:35.449Z,80.07
2022-12-01T14:05:20.613Z,73.00
2022-12-01T14:07:48.423Z,75.47
2022-12-01T14:10:31.486Z,64.43
2022-12-01T14:13:01.009Z,73.40
2022-12-01T14:15:33.790Z,70.13
2022-12-01T14:18:21.310Z,73.87
2022-12-01T14:20:48.604Z,74.57
2022-12-01T14:23:28.973Z,67.80
2022-12-01T14:25:58.586Z,80.50
2022-12-01T14:28:43.854Z,72.70
2022-12-01T14:31:10.537Z,74.43
2022-12-01T14:33:44.882Z,81.93
2022-12-01T14:36:23.756Z,71.43
2022-12-01T14:38:59.536Z,83.30
2022-12-01T14:41:27.813Z,72.83
2022-12-01T14:44:06.591Z,87.10
2022-12-01T14:46:38.842Z,90.63
2022-12-01T14:49:05.941Z,79.53
2022-12-01T14:51:34.936Z,89.97
2022-12-01T14:54:04.056Z,80.47
2022-12-01T14:56:32.458Z,82.53
2022-12-01T14:59:00.416Z,91.97
2022-12-01T15:01:34.857Z,90.83
2022-12-01T15:04:02.340Z,102.70
2022-12-01T15:06:29.883Z,94.80
2022-12-01T15:09:32.285Z,87.60
2022-12-01T15:11:55.893Z,99.53
2022-12-01T15:14:30.744Z,99.47
2022-12-01T15:16:57.882Z,94.23
2022-12-01T15:19:38.485Z,102.40
2022-12-01T15:22:16.405Z,96.77
2022-12-01T15:24:45.535Z,91.53
2022-12-01T15:27:29.084Z,104.73
2022-12-01T15:29:56.581Z,91.70
2022-12-01T15:32:23.709Z,96.30
2022-12-01T15:34:54.358Z,108.57
2022-12-01T15:37:21.946Z,123.17
2022-12-01T15:39:49.656Z,123.37
2022-12-01T15:42:35.384Z,118.53
2022-12-01T15:45:17.320Z,126.13
2022-12-01T15:47:45.290Z,120.43
2022-12-01T15:50:31.268Z,115.80
2022-12-01T15:52:58.806Z,122.80
2022-12-01T15:55:30.555Z,114.53
2022-12-01T15:57:57.859Z,124.90
2022-12-01T16:00:24.635Z,126.17
2022-12-01T16:02:52.806Z,125.30
2022-12-01T16:05:22.109Z,137.23
2022-12-01T16:10:36.521Z,139.60
2022-12-01T16:13:22.084Z,134.63
2022-12-01T16:15:48.665Z,134.37
2022-12-01T16:18:27.750Z,126.87
2022-12-01T16:21:01.575Z,152.67
2022-12-01T16:23:28.439Z,120.20
2022-12-01T16:25:59.148Z,133.03
2022-12-01T16:28:31.875Z,118.20
2022-12-01T16:30:58.698Z,137.47
2022-12-01T16:33:26.185Z,130.00
2022-12-01T16:35:52.886Z,135.50
2022-12-01T16:38:21.981Z,131.90
2022-12-01T16:40:50.030Z,132.00
2022-12-01T16:43:24.013Z,130.40
2022-12-01T16:45:57.555Z,130.83
2022-12-01T16:48:24.886Z,130.50
2022-12-01T16:50:53.641Z,138.27
2022-12-01T16:53:20.521Z,132.83
2022-12-01T16:55:54.345Z,129.03
2022-12-01T16:58:21.240Z,146.80
2022-12-01T17:00:53.890Z,127.97
2022-12-01T17:03:21.960Z,136.53
2022-12-01T17:05:48.988Z,139.83
2022-12-01T17:08:16.070Z,136.07
2022-12-01T17:10:43.722Z,143.90
2022-12-01T17:13:10.401Z,136.30
2022-12-01T17:15:41.240Z,138.83
2022-12-01T17:18:07.833Z,148.57
2022-12-01T17:20:34.359Z,136.00
2022-12-01T17:23:01.080Z,131.20
2022-12-01T17:25:27.633Z,122.10
2022-12-01T17:27:54.315Z,134.57
2022-12-01T17:30:21.781Z,129.20
2022-12-01T17:32:48.574Z,121.20
2022-12-01T17:35:15.534Z,131.13
2022-12-01T17:37:42.426Z,149.77
2022-12-01T17:40:11.120Z,130.23
2022-12-01T17:42:37.748Z,156.83
2022-12-01T17:45:04.722Z,150.17
2022-12-01T17:47:31.352Z,141.93
2022-12-01T17:49:57.962Z,127.70
2022-12-01T17:52:28.454Z,156.60
2022-12-01T17:54:56.381Z,158.70
2022-12-01T17:57:24.171Z,146.87
2022-12-01T17:59:50.861Z,166.03
2022-12-01T18:02:17.559Z,162.23
2022-12-01T18:04:44.236Z,157.70
2022-12-01T18:07:11.450Z,150.87
2022-12-01T18:09:38.277Z,140.37
2022-12-01T18:12:05.071Z,153.20
2022-12-01T18:14:33.615Z,162.90
2022-12-01T18:17:00.532Z,153.63
2022-12-01T18:19:27.224Z,170.57
2022-12-01T18:21:53.775Z,146.20
2022-12-01T18:24:20.438Z,152.50
2022-12-01T18:26:48.019Z,173.00
2022-12-01T18:29:16.116Z,168.63
2022-12-01T18:31:43.083Z,148.30
2022-12-01T18:34:10.177Z,155.23
2022-12-01T18:36:39.029Z,154.40
2022-12-01T18:39:07.691Z,156.80
2022-12-01T18:41:35.212Z,182.83
2022-12-01T18:44:02.005Z,179.17
2022-12-01T18:46:29.050Z,169.43
2022-12-01T18:49:02.945Z,172.00
2022-12-01T18:51:30.640Z,150.67
2022-12-01T18:53:57.997Z,188.20
2022-12-01T18:56:24.820Z,182.00
2022-12-01T18:58:58.600Z,174.80
2022-12-01T19:01:26.517Z,171.40
2022-12-01T19:03:57.003Z,170.87
2022-12-01T19:06:24.570Z,175.03
2022-12-01T19:08:51.808Z,185.70
2022-12-01T19:11:18.771Z,180.87
2022-12-01T19:13:45.730Z,174.80
2022-12-01T19:16:13.834Z,195.63
2022-12-01T19:18:40.641Z,169.30
2022-12-01T19:21:09.164Z,179.60
2022-12-01T19:23:36.057Z,189.97
2022-12-01T19:26:07.226Z,176.30
2022-12-01T19:28:34.825Z,172.23
2022-12-01T19:31:05.398Z,165.77
2022-12-01T19:33:32.276Z,180.53
2022-12-01T19:36:04.162Z,183.27
2022-12-01T19:38:30.681Z,181.80
2022-12-01T19:40:57.362Z,174.80
2022-12-01T19:43:24.040Z,160.60
2022-12-01T19:45:50.901Z,164.93
2022-12-01T19:48:17.694Z,188.87
2022-12-01T19:50:44.382Z,167.70
2022-12-01T19:53:11.032Z,163.90
2022-12-01T19:55:38.022Z,151.50
2022-12-01T19:58:05.268Z,162.40
2022-12-01T20:00:32.571Z,155.17
2022-12-01T20:02:59.818Z,186.27
2022-12-01T20:05:26.391Z,171.57
2022-12-01T20:07:53.267Z,189.87
2022-12-01T20:10:20.507Z,165.03
2022-12-01T20:12:47.539Z,169.63
2022-12-01T20:15:14.597Z,166.67
2022-12-01T20:17:41.505Z,169.70
2022-12-01T20:20:09.065Z,180.03
2022-12-01T20:22:35.729Z,164.60
2022-12-01T20:25:03.465Z,180.90
2022-12-01T20:27:30.104Z,190.97
2022-12-01T20:29:56.744Z,183.17
2022-12-01T20:32:24.019Z,189.10
2022-12-01T20:34:50.879Z,192.37
2022-12-01T20:37:17.840Z,200.20
2022-12-01T20:39:44.533Z,208.27
2022-12-01T20:42:11.336Z,189.50
2022-12-01T20:44:38.150Z,200.73
2022-12-01T20:47:04.780Z,196.07
2022-12-01T20:49:31.409Z,202.90
2022-12-01T20:51:57.963Z,195.37
2022-12-01T20:54:29.163Z,204.83
2022-12-01T20:56:56.795Z,181.30
2022-12-01T20:59:23.752Z,192.27
2022-12-01T21:01:50.546Z,175.10
2022-12-01T21:04:17.640Z,177.63
2022-12-01T21:06:44.461Z,185.30
2022-12-01T21:09:12.403Z,166.73
2022-12-01T21:12:04.386Z,176.63
2022-12-01T21:14:36.845Z,155.60
2022-12-01T21:17:24.173Z,145.80
2022-12-01T21:20:21.654Z,151.70
2022-12-01T21:22:49.598Z,139.30
2022-12-01T21:25:21.167Z,131.27
2022-12-01T21:27:48.000Z,149.60
2022-12-01T21:30:17.077Z,139.23
2022-12-01T21:32:44.605Z,140.20
2022-12-01T21:35:14.451Z,156.37
2022-12-01T21:37:41.091Z,140.17
2022-12-01T21:40:14.843Z,135.40
2022-12-01T21:42:41.539Z,143.10
2022-12-01T21:45:17.876Z,155.20
2022-12-01T21:47:44.583Z,167.50
2022-12-01T21:50:17.652Z,143.93
2022-12-01T21:52:44.702Z,132.83
2022-12-01T21:55:13.964Z,153.53
2022-12-01T21:57:47.873Z,126.43
2022-12-01T22:00:28.475Z,136.17
2022-12-01T22:03:04.264Z,119.13
2022-12-01T22:05:38.150Z,142.00
2022-12-01T22:08:14.198Z,107.90
2022-12-01T22:10:52.504Z,112.80
2022-12-01T22:13:19.678Z,100.30
2022-12-01T22:15:46.233Z,96.20
2022-12-01T22:18:19.019Z,86.03
2022-12-01T22:20:45.595Z,102.13
2022-12-01T22:23:12.824Z,88.07
2022-12-01T22:25:40.894Z,92.77
2022-12-01T22:28:14.619Z,82.23
2022-12-01T22:30:41.402Z,84.40
2022-12-01T22:33:14.940Z,68.13
2022-12-01T22:35:45.949Z,71.03
2022-12-01T22:38:20.543Z,93.40
2022-12-01T22:40:58.003Z,69.10
2022-12-01T22:43:38.903Z,86.37
2022-12-01T22:46:16.535Z,73.73
2022-12-01T22:48:47.662Z,70.90
2022-12-01T22:51:14.204Z,67.87
2022-12-01T22:53:41.208Z,84.30
2022-12-01T22:56:20.867Z,75.50
2022-12-01T22:58:47.517Z,72.30
2022-12-01T23:01:20.621Z,86.63
2022-12-01T23:03:48.242Z,90.63
2022-12-01T23:06:33.676Z,79.77
2022-12-01T23:09:00.204Z,82.30
2022-12-01T23:11:26.757Z,82.07
2022-12-01T23:13:53.613Z,82.40
2022-12-01T23:16:20.418Z,89.73
2022-12-01T23:18:47.204Z,74.63
2022-12-01T23:21:15.546Z,66.63
2022-12-01T23:23:42.116Z,75.93
2022-12-01T23:26:08.702Z,77.30
2022-12-01T23:28:36.631Z,71.50
2022-12-01T23:31:03.273Z,87.13
2022-12-01T23:33:31.191Z,83.37
2022-12-01T23:35:59.266Z,83.53
2022-12-01T23:38:37.458Z,76.50
2022-12-01T23:41:08.358Z,71.80
2022-12-01T23:43:38.140Z,76.30
2022-12-01T23:46:11.288Z,82.07
2022-12-01T23:48:41.517Z,71.57
2022-12-01T23:51:20.460Z,79.27
2022-12-01T23:53:47.116Z,78.00
2022-12-01T23:56:16.675Z,89.77
2022-12-01T23:58:43.881Z,80.07
